Airfield :
LOGIN :

Register | Disclaimer

   EN    FR    IT 

 










Legend :    VFR   Marginal VFR   IFR   Intensive IFR   Very Intensive IFR
Visi :
Ceiling :
>= 8 km
>= 3000ft
5 to 8 km
1000 to 3000 ft
1500m to 5 km
500 to 1000 ft
800 to 1500m
200 to 500 ft
< 800m
< 200 ft
Symbols :   Thunderstorms  Fog  Heavy snow  Heavy precipitations  Wind > 20 kt
SIGMETs :     Misc.  Thunderstorms  Icing  Turbulence  Mountain Waves  Volcanic Ashes







- Airport Elevation : 17 ft
- IATA code : GRQ


EHGG - Groningen Eelde

CURRENT METAR :
  • 141825Z AUTO 21011KT 9999 SCT007 BKN009 BKN047 03/02 Q0988 TEMPO 4000 -SHRASN BKN008 FEW015CB

EXPIRED METARs :
  • 141755Z AUTO 21011KT 180V240 9999 FEW010 SCT023 BKN026 03/03 Q0988 TEMPO 4000 -SHRASN BKN008 FEW015CB
  • 141725Z AUTO 20011KT 9999 SCT007 BKN008 BKN023 03/02 Q0988 TEMPO 4000 -SHRASN BKN008 FEW015CB
  • 141655Z AUTO 20009KT 9999 FEW007 SCT012 BKN017 03/03 Q0988 TEMPO 4000 -SHRASN SCT008 FEW015CB
  • 141625Z AUTO 20010KT 9999 FEW009 SCT015 BKN020 03/03 Q0988 TEMPO 4000 -SHRASN SCT008 FEW015CB
  • 141555Z AUTO 19009KT 160V220 9999 -UP SCT029 BKN032 BKN039 04/03 Q0988 NOSIG

TAF TAF EHGG
Valid from the 14 at 18:00 until the 16 at 00:00 UTC


141723Z 1418/1524 20012KT 9999 BKN020
BECMG 1418/1421 4000 BR BKN008
PROB30
TEMPO 1418/1420 4000 SHRA SHRASNGS BKN008 SCT015CB
BECMG 1422/1501 BKN003
BECMG 1511/1514 25008KT 5000 BKN008
PROB40
TEMPO 1517/1522 2000 BKN003
TEMPO 1519/1523 4000 SHRA SHRAGS SCT008 SCT020CB BKN030
BECMG 1521/1524 9999 NSW BKN030
No reported NOTAMs for that airfield.



MET'MAP, your aeronautical weather chart ! - Copyright ORBIFLY December 2007 - Disclaimer

ORBIFLY MET'MAP TEAM :

Programming & Development : Alexandra Zaïnal
Concept & Development : Baudouin d'Aumeries
Co-Development & Prog : Marc-Olivier Méhu
Technical & hardware support : Manuel Goepfert

Contact : metmap@orbifly.com




SOURCES & CREDITS :

   NOAA